createdAt,value
2019-06-01T00:02:21.258Z,20.71
2019-06-01T00:04:54.957Z,19.95
2019-06-01T00:07:27.628Z,19.33
2019-06-01T00:10:00.309Z,20.79
2019-06-01T00:12:32.996Z,23.39
2019-06-01T00:15:07.688Z,23.02
2019-06-01T00:17:40.293Z,21.69
2019-06-01T00:20:13.073Z,20.72
2019-06-01T00:22:47.420Z,20.01
2019-06-01T00:25:20.282Z,19.44
2019-06-01T00:27:52.963Z,20.89
2019-06-01T00:30:27.315Z,23.33
2019-06-01T00:32:59.335Z,22.94
2019-06-01T00:35:32.435Z,21.59
2019-06-01T00:38:05.514Z,20.63
2019-06-01T00:40:38.508Z,19.95
2019-06-01T00:43:11.177Z,19.39
2019-06-01T00:45:44.541Z,21.07
2019-06-01T00:48:17.154Z,23.58
2019-06-01T00:50:51.002Z,23.02
2019-06-01T00:53:23.958Z,21.62
2019-06-01T00:55:56.234Z,20.63
2019-06-01T00:58:28.900Z,19.86
2019-06-01T01:01:01.578Z,21.15
2019-06-01T01:03:34.248Z,23.58
2019-06-01T01:06:06.928Z,23.08
2019-06-01T01:08:39.616Z,21.74
2019-06-01T01:11:12.301Z,20.79
2019-06-01T01:13:45.659Z,20.03
2019-06-01T01:19:10.699Z,21.83
2019-06-01T01:21:43.693Z,24.02
2019-06-01T01:24:16.380Z,23.06
2019-06-01T01:26:49.056Z,21.79
2019-06-01T01:29:21.630Z,20.82
2019-06-01T01:31:55.640Z,20.13
2019-06-01T01:34:28.361Z,19.57
2019-06-01T01:37:00.995Z,21.21
2019-06-01T01:39:41.130Z,23.68
2019-06-01T01:42:15.273Z,23.18
2019-06-01T01:44:48.445Z,21.89
2019-06-01T01:47:21.049Z,20.95
2019-06-01T01:49:54.100Z,20.24
2019-06-01T01:52:26.804Z,20.09
2019-06-01T01:54:59.587Z,22.62
2019-06-01T01:57:32.564Z,24.12
2019-06-01T02:00:11.810Z,22.88
2019-06-01T02:02:45.005Z,21.69
2019-06-01T02:05:18.281Z,20.85
2019-06-01T02:07:52.787Z,20.26
2019-06-01T02:10:25.612Z,21.97
2019-06-01T02:12:59.384Z,24.35
2019-06-01T02:15:32.487Z,23.77
2019-06-01T02:18:06.191Z,22.43
2019-06-01T02:20:38.977Z,21.45
2019-06-01T02:23:12.260Z,20.76
2019-06-01T02:25:45.051Z,20.21
2019-06-01T02:28:17.940Z,21.73
2019-06-01T02:30:50.676Z,24.22
2019-06-01T02:33:23.589Z,23.84
2019-06-01T02:35:56.270Z,22.52
2019-06-01T02:38:28.742Z,21.52
2019-06-01T02:41:03.102Z,20.80
2019-06-01T02:43:35.667Z,20.24
2019-06-01T02:46:08.216Z,21.86
2019-06-01T02:48:40.888Z,24.35
2019-06-01T02:51:13.479Z,23.98
2019-06-01T02:53:46.252Z,22.66
2019-06-01T02:56:18.939Z,21.65
2019-06-01T02:58:51.627Z,20.93
2019-06-01T03:01:38.846Z,20.37
2019-06-01T03:04:12.925Z,22.28
2019-06-01T03:06:46.350Z,24.70
2019-06-01T03:09:22.513Z,24.19
2019-06-01T03:11:59.378Z,22.83
2019-06-01T03:14:34.412Z,21.84
2019-06-01T03:17:07.879Z,21.10
2019-06-01T03:19:44.183Z,20.55
2019-06-01T03:22:19.512Z,22.04
2019-06-01T03:24:55.071Z,24.56
2019-06-01T03:27:34.508Z,23.87
2019-06-01T03:30:15.226Z,22.60
2019-06-01T03:32:46.420Z,21.68
2019-06-01T03:35:19.090Z,21.04
2019-06-01T03:37:51.778Z,20.55
2019-06-01T03:40:24.448Z,21.97
2019-06-01T03:42:57.333Z,24.51
2019-06-01T03:45:30.197Z,24.20
2019-06-01T03:48:02.794Z,22.94
2019-06-01T03:50:35.592Z,22.01
2019-06-01T03:53:09.876Z,21.35
2019-06-01T03:55:42.880Z,20.80
2019-06-01T03:58:15.866Z,22.38
2019-06-01T04:00:48.540Z,24.94
2019-06-01T04:03:21.125Z,24.60
2019-06-01T04:05:53.900Z,23.32
2019-06-01T04:08:26.587Z,22.38
2019-06-01T04:10:59.272Z,21.70
2019-06-01T04:13:32.258Z,21.17
2019-06-01T04:16:05.836Z,22.74
2019-06-01T04:18:38.843Z,24.85
2019-06-01T04:21:12.202Z,23.87
2019-06-01T04:23:45.123Z,22.77
2019-06-01T04:26:17.936Z,21.97
2019-06-01T04:28:50.791Z,21.41
2019-06-01T04:31:23.772Z,20.96
2019-06-01T04:33:56.656Z,22.40
2019-06-01T04:36:29.841Z,24.98
2019-06-01T04:39:03.346Z,24.68
2019-06-01T04:41:36.495Z,23.47
2019-06-01T04:44:10.009Z,22.58
2019-06-01T04:46:43.024Z,21.94
2019-06-01T04:49:15.809Z,21.49
2019-06-01T04:51:48.629Z,23.25
2019-06-01T04:54:21.564Z,25.62
2019-06-01T04:56:54.659Z,24.82
2019-06-01T04:59:27.432Z,23.73
2019-06-01T05:02:00.626Z,22.93
2019-06-01T05:04:33.411Z,22.38
2019-06-01T05:07:07.205Z,21.96
2019-06-01T05:09:39.994Z,23.85
2019-06-01T05:12:13.614Z,25.88
2019-06-01T05:14:46.593Z,24.89
2019-06-01T05:17:19.680Z,23.85
2019-06-01T05:19:52.351Z,23.11
2019-06-01T05:22:25.128Z,22.58
2019-06-01T05:24:57.808Z,22.17
2019-06-01T05:27:30.704Z,23.94
2019-06-01T05:30:02.929Z,26.01
2019-06-01T05:32:36.062Z,25.13
2019-06-01T05:35:11.800Z,24.11
2019-06-01T05:37:44.893Z,23.40
2019-06-01T05:40:19.747Z,22.86
2019-06-01T05:42:52.309Z,22.80
2019-06-01T05:45:25.005Z,25.40
2019-06-01T05:47:57.666Z,25.66
2019-06-01T05:50:30.232Z,24.64
2019-06-01T05:53:03.022Z,23.87
2019-06-01T05:55:35.713Z,23.33
2019-06-01T05:58:08.382Z,22.93
2019-06-01T06:00:45.677Z,24.74
2019-06-01T06:03:22.195Z,26.73
2019-06-01T06:05:52.755Z,25.83
2019-06-01T06:08:25.439Z,24.92
2019-06-01T06:10:58.424Z,24.27
2019-06-01T06:13:31.111Z,23.88
2019-06-01T06:16:03.803Z,23.57
2019-06-01T06:18:36.096Z,23.32
2019-06-01T06:21:08.739Z,24.08
2019-06-01T06:23:41.838Z,26.89
2019-06-01T06:26:15.488Z,26.87
2019-06-01T06:28:48.715Z,25.89
2019-06-01T06:31:21.422Z,25.20
2019-06-01T06:33:56.860Z,24.78
2019-06-01T06:36:29.494Z,24.51
2019-06-01T06:39:04.715Z,24.29
2019-06-01T06:41:36.488Z,24.08
2019-06-01T06:44:09.195Z,23.87
2019-06-01T06:46:41.767Z,23.63
2019-06-01T06:49:15.040Z,23.42
2019-06-01T06:51:47.640Z,23.17
2019-06-01T06:54:20.330Z,22.99
2019-06-01T06:56:52.934Z,22.83
2019-06-01T06:59:26.622Z,22.66
2019-06-01T07:01:59.384Z,24.49
2019-06-01T07:04:32.071Z,25.31
2019-06-01T07:07:04.751Z,24.68
2019-06-01T07:09:39.569Z,24.16
2019-06-01T07:12:12.263Z,23.85
2019-06-01T07:14:44.933Z,23.63
2019-06-01T07:17:17.382Z,23.45
2019-06-01T07:19:51.192Z,23.36
2019-06-01T07:22:23.818Z,23.25
2019-06-01T07:24:56.925Z,23.21
2019-06-01T07:27:29.559Z,23.18
2019-06-01T07:30:02.250Z,23.12
2019-06-01T07:32:34.810Z,23.12
2019-06-01T07:35:08.723Z,23.12
2019-06-01T07:37:41.401Z,23.15
2019-06-01T07:40:14.211Z,23.18
2019-06-01T07:42:47.162Z,23.23
2019-06-01T07:45:20.806Z,23.31
2019-06-01T07:47:53.450Z,23.36
2019-06-01T07:50:26.122Z,23.40
2019-06-01T07:52:59.016Z,23.42
2019-06-01T07:55:33.652Z,23.46
2019-06-01T07:58:06.426Z,23.49
2019-06-01T08:00:39.071Z,23.54
2019-06-01T08:03:11.316Z,23.65
2019-06-01T08:05:44.252Z,23.70
2019-06-01T08:08:16.926Z,23.71
2019-06-01T08:10:49.603Z,23.71
2019-06-01T08:13:23.310Z,23.68
2019-06-01T08:15:56.497Z,23.67
2019-06-01T08:18:30.117Z,23.73
2019-06-01T08:21:04.214Z,23.79
2019-06-01T08:23:36.964Z,23.91
2019-06-01T08:26:10.349Z,24.02
2019-06-01T08:28:42.974Z,24.13
2019-06-01T08:31:15.644Z,24.22
2019-06-01T08:33:48.230Z,24.30
2019-06-01T08:36:20.896Z,24.33
2019-06-01T08:38:53.484Z,24.38
2019-06-01T08:41:27.640Z,24.47
2019-06-01T08:44:01.174Z,24.54
2019-06-01T08:46:34.009Z,24.64
2019-06-01T08:49:06.965Z,24.72
2019-06-01T08:51:39.563Z,24.86
2019-06-01T08:54:12.220Z,25.01
2019-06-01T08:56:44.900Z,25.15
2019-06-01T08:59:17.466Z,25.36
2019-06-01T09:01:50.170Z,25.58
2019-06-01T09:04:22.830Z,25.64
2019-06-01T09:06:55.506Z,25.68
2019-06-01T09:09:28.957Z,25.76
2019-06-01T09:12:01.799Z,25.82
2019-06-01T09:14:35.587Z,25.89
2019-06-01T09:17:08.270Z,26.01
2019-06-01T09:19:40.992Z,26.13
2019-06-01T09:22:14.445Z,26.28
2019-06-01T09:24:47.137Z,26.38
2019-06-01T09:27:19.753Z,26.51
2019-06-01T09:29:52.399Z,26.66
2019-06-01T09:32:26.089Z,26.82
2019-06-01T09:34:58.884Z,27.03
2019-06-01T09:37:32.532Z,27.10
2019-06-01T09:40:09.407Z,27.14
2019-06-01T09:42:42.146Z,27.11
2019-06-01T09:45:15.024Z,27.06
2019-06-01T09:47:47.592Z,26.89
2019-06-01T09:50:20.279Z,26.78
2019-06-01T09:52:53.161Z,26.60
2019-06-01T09:55:25.734Z,26.41
2019-06-01T09:57:58.029Z,26.23
2019-06-01T10:00:30.791Z,26.04
2019-06-01T10:03:03.878Z,25.92
2019-06-01T10:05:36.566Z,25.78
2019-06-01T10:08:09.133Z,25.66
2019-06-01T10:10:42.309Z,25.56
2019-06-01T10:13:14.632Z,25.47
2019-06-01T10:15:47.278Z,25.40
2019-06-01T10:18:19.947Z,25.36
2019-06-01T10:20:52.523Z,25.34
2019-06-01T10:23:25.218Z,25.41
2019-06-01T10:25:57.883Z,25.56
2019-06-01T10:28:31.636Z,25.76
2019-06-01T10:31:05.298Z,25.93
2019-06-01T10:33:38.936Z,26.00
2019-06-01T10:36:20.653Z,25.92
2019-06-01T10:38:47.325Z,25.82
2019-06-01T10:41:20.005Z,25.68
2019-06-01T10:43:52.651Z,25.57
2019-06-01T10:46:25.266Z,25.36
2019-06-01T10:48:57.941Z,25.19
2019-06-01T10:51:31.938Z,25.03
2019-06-01T10:54:05.243Z,24.91
2019-06-01T10:56:38.947Z,24.77
2019-06-01T10:59:11.635Z,24.67
2019-06-01T11:01:43.857Z,24.60
2019-06-01T11:04:16.580Z,24.56
2019-06-01T11:06:49.092Z,24.57
2019-06-01T11:09:21.932Z,24.58
2019-06-01T11:11:54.504Z,24.63
2019-06-01T11:14:27.292Z,24.64
2019-06-01T11:16:59.994Z,24.71
2019-06-01T11:19:33.177Z,24.82
2019-06-01T11:22:06.262Z,25.10
2019-06-01T11:24:39.516Z,25.34
2019-06-01T11:27:12.534Z,25.64
2019-06-01T11:29:51.241Z,25.95
2019-06-01T11:32:19.019Z,26.24
2019-06-01T11:34:51.695Z,26.54
2019-06-01T11:37:24.471Z,26.81
2019-06-01T11:39:57.148Z,27.06
2019-06-01T11:42:29.723Z,27.31
2019-06-01T11:45:02.416Z,27.65
2019-06-01T11:47:35.093Z,27.94
2019-06-01T11:50:08.992Z,28.22
2019-06-01T11:52:41.576Z,28.49
2019-06-01T11:55:14.769Z,28.83
2019-06-01T11:57:47.450Z,29.13
2019-06-01T12:00:20.838Z,29.50
2019-06-01T12:02:53.411Z,29.87
2019-06-01T12:05:26.094Z,30.12
2019-06-01T12:07:59.382Z,30.31
2019-06-01T12:10:32.079Z,30.44
2019-06-01T12:13:04.647Z,30.60
2019-06-01T12:15:38.406Z,30.79
2019-06-01T12:18:11.331Z,31.00
2019-06-01T12:20:44.885Z,31.24
2019-06-01T12:23:17.821Z,31.42
2019-06-01T12:25:50.500Z,31.67
2019-06-01T12:28:23.070Z,31.85
2019-06-01T12:30:55.758Z,32.09
2019-06-01T12:33:28.438Z,32.39
2019-06-01T12:36:00.733Z,32.70
2019-06-01T12:38:34.924Z,32.90
2019-06-01T12:41:07.591Z,33.00
2019-06-01T12:43:41.227Z,33.07
2019-06-01T12:46:14.188Z,33.06
2019-06-01T12:48:46.866Z,33.14
2019-06-01T12:51:19.545Z,33.17
2019-06-01T12:53:52.780Z,33.18
2019-06-01T12:56:25.624Z,33.25
2019-06-01T12:58:57.854Z,33.35
2019-06-01T13:01:30.769Z,33.42
2019-06-01T13:04:03.455Z,33.54
2019-06-01T13:06:36.134Z,33.61
2019-06-01T13:09:10.163Z,33.68
2019-06-01T13:11:43.196Z,33.77
2019-06-01T13:14:16.007Z,33.77
2019-06-01T13:17:03.024Z,33.80
2019-06-01T13:19:23.011Z,33.81
2019-06-01T13:21:55.682Z,33.83
2019-06-01T13:24:28.371Z,33.96
2019-06-01T13:27:01.094Z,34.14
2019-06-01T13:29:33.721Z,34.28
2019-06-01T13:32:06.715Z,34.48
2019-06-01T13:34:39.397Z,34.65
2019-06-01T13:37:11.682Z,34.87
2019-06-01T13:39:45.452Z,35.10
2019-06-01T13:42:18.552Z,35.24
2019-06-01T13:44:51.606Z,35.28
2019-06-01T13:47:24.738Z,35.29
2019-06-01T13:49:57.295Z,35.32
2019-06-01T13:52:29.983Z,35.44
2019-06-01T13:55:02.576Z,35.59
2019-06-01T13:57:38.580Z,35.79
2019-06-01T14:00:15.562Z,36.07
2019-06-01T14:02:49.606Z,36.28
2019-06-01T14:05:20.852Z,36.24
2019-06-01T14:07:55.700Z,36.34
2019-06-01T14:10:28.467Z,36.62
2019-06-01T14:13:05.333Z,36.83
2019-06-01T14:15:37.318Z,37.04
2019-06-01T14:18:09.987Z,37.33
2019-06-01T14:20:42.775Z,37.55
2019-06-01T14:23:15.052Z,37.59
2019-06-01T14:25:47.987Z,37.32
2019-06-01T14:28:20.803Z,36.86
2019-06-01T14:30:54.364Z,36.38
2019-06-01T14:33:27.303Z,36.28
2019-06-01T14:35:59.861Z,36.38
2019-06-01T14:38:46.064Z,36.45
2019-06-01T14:41:06.662Z,36.56
2019-06-01T14:43:38.940Z,36.38
2019-06-01T14:46:11.615Z,35.93
2019-06-01T14:48:44.563Z,35.60
2019-06-01T14:51:17.172Z,35.69
2019-06-01T14:53:49.852Z,35.80
2019-06-01T14:56:22.464Z,36.01
2019-06-01T14:58:56.000Z,36.32
2019-06-01T15:01:32.326Z,36.76
2019-06-01T15:04:02.731Z,37.10
2019-06-01T15:06:35.358Z,37.42
2019-06-01T15:09:18.607Z,37.70
2019-06-01T15:11:43.928Z,37.77
2019-06-01T15:14:16.207Z,37.88
2019-06-01T15:16:49.540Z,38.00
2019-06-01T15:19:22.203Z,38.10
2019-06-01T15:21:56.115Z,38.30
2019-06-01T15:24:29.271Z,38.40
2019-06-01T15:27:03.040Z,38.49
2019-06-01T15:29:35.643Z,38.46
2019-06-01T15:32:09.573Z,38.16
2019-06-01T15:34:42.548Z,37.74
2019-06-01T15:37:14.771Z,37.60
2019-06-01T15:39:47.499Z,37.69
2019-06-01T15:42:21.118Z,37.74
2019-06-01T15:44:55.008Z,37.91
2019-06-01T15:47:27.893Z,38.10
2019-06-01T15:50:00.573Z,38.30
2019-06-01T15:52:33.161Z,38.47
2019-06-01T15:55:08.189Z,38.63
2019-06-01T15:57:41.488Z,38.81
2019-06-01T16:00:16.013Z,38.87
2019-06-01T16:02:49.291Z,38.88
2019-06-01T16:05:22.011Z,38.88
2019-06-01T16:07:55.093Z,38.82
2019-06-01T16:10:27.950Z,38.82
2019-06-01T16:13:01.537Z,38.79
2019-06-01T16:15:34.427Z,38.79
2019-06-01T16:18:07.019Z,38.78
2019-06-01T16:20:39.700Z,38.87
2019-06-01T16:23:12.436Z,39.04
2019-06-01T16:25:52.315Z,39.12
2019-06-01T16:28:19.477Z,39.15
2019-06-01T16:30:52.346Z,39.12
2019-06-01T16:33:24.923Z,39.15
2019-06-01T16:35:58.746Z,39.12
2019-06-01T16:38:31.512Z,39.08
2019-06-01T16:41:05.209Z,39.02
2019-06-01T16:43:38.201Z,38.90
2019-06-01T16:46:11.912Z,38.78
2019-06-01T16:48:44.481Z,38.73
2019-06-01T16:51:16.771Z,38.71
2019-06-01T16:53:49.440Z,38.57
2019-06-01T16:56:22.110Z,38.19
2019-06-01T16:58:55.943Z,37.59
2019-06-01T17:01:28.413Z,37.21
2019-06-01T17:04:01.067Z,37.08
2019-06-01T17:06:33.553Z,37.01
2019-06-01T17:09:09.014Z,37.08
2019-06-01T17:11:41.775Z,37.10
2019-06-01T17:14:14.461Z,37.19
2019-06-01T17:16:47.136Z,37.28
2019-06-01T17:19:19.354Z,37.30
2019-06-01T17:21:51.641Z,37.12
2019-06-01T17:24:24.251Z,36.73
2019-06-01T17:26:57.757Z,36.43
2019-06-01T17:29:30.634Z,36.24
2019-06-01T17:32:16.732Z,35.87
2019-06-01T17:34:37.533Z,35.39
2019-06-01T17:37:10.617Z,34.93
2019-06-01T17:39:43.401Z,34.62
2019-06-01T17:42:16.076Z,34.31
2019-06-01T17:44:48.774Z,33.83
2019-06-01T17:47:21.427Z,33.35
2019-06-01T17:49:54.121Z,32.86
2019-06-01T17:52:26.793Z,32.37
2019-06-01T17:55:00.714Z,32.00
2019-06-01T17:57:33.889Z,31.58
2019-06-01T18:00:11.746Z,31.14
2019-06-01T18:02:45.294Z,30.67
2019-06-01T18:05:17.727Z,30.24
2019-06-01T18:07:50.448Z,29.85
2019-06-01T18:10:24.550Z,29.49
2019-06-01T18:12:57.232Z,29.11
2019-06-01T18:15:29.814Z,28.74
2019-06-01T18:18:02.490Z,28.36
2019-06-01T18:20:36.704Z,28.03
2019-06-01T18:23:10.159Z,27.70
2019-06-01T18:25:43.244Z,27.37
2019-06-01T18:28:19.505Z,27.04
2019-06-01T18:30:51.927Z,26.73
2019-06-01T18:33:24.708Z,26.42
2019-06-01T18:35:57.292Z,26.11
2019-06-01T18:38:29.970Z,25.81
2019-06-01T18:41:11.617Z,25.54
2019-06-01T18:43:36.458Z,25.22
2019-06-01T18:46:10.119Z,24.94
2019-06-01T18:48:43.216Z,24.70
2019-06-01T18:51:15.832Z,24.44
2019-06-01T18:53:48.079Z,24.19
2019-06-01T18:56:20.673Z,23.97
2019-06-01T18:58:53.347Z,23.74
2019-06-01T19:01:26.123Z,23.49
2019-06-01T19:03:58.910Z,23.26
2019-06-01T19:06:31.507Z,23.02
2019-06-01T19:09:05.713Z,22.81
2019-06-01T19:11:38.397Z,22.59
2019-06-01T19:14:11.921Z,22.40
2019-06-01T19:16:44.679Z,22.22
2019-06-01T19:19:17.338Z,22.04
2019-06-01T19:21:50.014Z,21.87
2019-06-01T19:24:22.700Z,21.66
2019-06-01T19:26:55.331Z,21.52
2019-06-01T19:29:27.973Z,21.37
2019-06-01T19:32:00.632Z,21.22
2019-06-01T19:34:32.941Z,21.06
2019-06-01T19:37:06.941Z,20.92
2019-06-01T19:39:40.932Z,20.79
2019-06-01T19:42:13.705Z,20.68
2019-06-01T19:44:46.351Z,22.35
2019-06-01T19:47:19.241Z,25.06
2019-06-01T19:49:51.508Z,24.70
2019-06-01T19:52:24.119Z,23.71
2019-06-01T19:54:56.857Z,23.01
2019-06-01T19:57:29.473Z,22.56
2019-06-01T20:00:02.163Z,22.18
2019-06-01T20:02:35.869Z,21.90
2019-06-01T20:05:08.852Z,21.62
2019-06-01T20:07:41.527Z,21.42
2019-06-01T20:10:14.450Z,21.18
2019-06-01T20:12:47.095Z,20.99
2019-06-01T20:15:19.782Z,20.80
2019-06-01T20:17:52.021Z,20.62
2019-06-01T20:20:24.726Z,20.44
2019-06-01T20:22:57.564Z,20.31
2019-06-01T20:25:29.872Z,22.17
2019-06-01T20:28:02.563Z,24.63
2019-06-01T20:30:35.230Z,24.01
2019-06-01T20:33:07.812Z,23.06
2019-06-01T20:35:40.086Z,22.43
2019-06-01T20:38:14.246Z,22.03
2019-06-01T20:40:47.074Z,21.66
2019-06-01T20:43:20.809Z,21.38
2019-06-01T20:45:56.749Z,21.17
2019-06-01T20:48:28.401Z,20.90
2019-06-01T20:51:01.086Z,22.03
2019-06-01T20:53:33.659Z,24.79
2019-06-01T20:56:06.330Z,24.72
2019-06-01T20:58:39.020Z,23.63
2019-06-01T21:01:11.686Z,22.83
2019-06-01T21:03:44.356Z,22.27
2019-06-01T21:06:18.517Z,21.80
2019-06-01T21:08:51.562Z,21.40
2019-06-01T21:11:24.478Z,21.04
2019-06-01T21:13:56.768Z,20.72
2019-06-01T21:16:29.498Z,20.47
2019-06-01T21:19:02.381Z,21.68
2019-06-01T21:21:35.164Z,24.24
2019-06-01T21:24:07.412Z,23.90
2019-06-01T21:26:40.113Z,22.86
2019-06-01T21:29:12.798Z,22.07
2019-06-01T21:31:45.473Z,21.54
2019-06-01T21:34:21.889Z,21.09
2019-06-01T21:36:53.494Z,20.76
2019-06-01T21:39:25.721Z,20.47
2019-06-01T21:41:58.437Z,22.07
2019-06-01T21:44:31.228Z,24.70
2019-06-01T21:47:04.064Z,24.49
2019-06-01T21:49:36.307Z,23.28
2019-06-01T21:52:08.595Z,22.40
2019-06-01T21:54:41.427Z,21.77
2019-06-01T21:57:14.107Z,21.30
2019-06-01T21:59:47.202Z,20.89
2019-06-01T22:02:20.949Z,22.42
2019-06-01T22:04:54.592Z,25.01
2019-06-01T22:07:27.895Z,24.64
2019-06-01T22:10:00.879Z,23.38
2019-06-01T22:12:33.561Z,22.46
2019-06-01T22:15:08.356Z,21.81
2019-06-01T22:17:40.898Z,21.28
2019-06-01T22:20:13.933Z,20.85
2019-06-01T22:22:46.748Z,20.48
2019-06-01T22:25:20.634Z,22.22
2019-06-01T22:27:53.940Z,24.79
2019-06-01T22:30:26.621Z,24.50
2019-06-01T22:32:59.863Z,23.25
2019-06-01T22:35:32.795Z,22.32
2019-06-01T22:38:06.500Z,21.68
2019-06-01T22:40:39.170Z,21.11
2019-06-01T22:43:12.363Z,20.67
2019-06-01T22:45:45.252Z,21.89
2019-06-01T22:48:20.504Z,24.56
2019-06-01T22:50:53.275Z,24.29
2019-06-01T22:53:26.776Z,23.05
2019-06-01T22:56:00.419Z,22.11
2019-06-01T22:58:33.146Z,21.46
2019-06-01T23:01:06.458Z,20.93
2019-06-01T23:03:39.274Z,20.50
2019-06-01T23:06:12.116Z,22.05
2019-06-01T23:08:45.553Z,24.61
2019-06-01T23:11:18.598Z,24.30
2019-06-01T23:13:53.644Z,23.04
2019-06-01T23:16:26.099Z,22.07
2019-06-01T23:18:59.599Z,21.38
2019-06-01T23:21:32.385Z,20.89
2019-06-01T23:24:05.684Z,22.31
2019-06-01T23:26:38.762Z,24.86
2019-06-01T23:29:12.265Z,24.53
2019-06-01T23:31:44.795Z,23.22
2019-06-01T23:34:17.629Z,22.28
2019-06-01T23:36:50.076Z,21.58
2019-06-01T23:42:12.252Z,20.52
2019-06-01T23:44:44.780Z,20.09
2019-06-01T23:47:17.039Z,21.73
2019-06-01T23:49:49.596Z,24.30
2019-06-01T23:52:23.471Z,24.06
2019-06-01T23:54:56.480Z,22.79
2019-06-01T23:57:30.054Z,21.84
